sensor_id;sensor_type;location;lat;lon;timestamp;temperature;humidity
30694;DHT22;17446;48.022;-1.740;2024-03-17T00:01:37;14.80;99.90
30694;DHT22;17446;48.022;-1.740;2024-03-17T00:04:03;14.80;99.90
30694;DHT22;17446;48.022;-1.740;2024-03-17T00:06:29;14.80;99.90
30694;DHT22;17446;48.022;-1.740;2024-03-17T00:08:55;14.80;99.90
30694;DHT22;17446;48.022;-1.740;2024-03-17T00:11:21;14.80;99.90
30694;DHT22;17446;48.022;-1.740;2024-03-17T00:13:46;14.70;99.90
30694;DHT22;17446;48.022;-1.740;2024-03-17T00:16:13;14.80;99.90
30694;DHT22;17446;48.022;-1.740;2024-03-17T00:18:39;14.80;99.90
30694;DHT22;17446;48.022;-1.740;2024-03-17T00:21:06;14.80;99.90
30694;DHT22;17446;48.022;-1.740;2024-03-17T00:23:32;14.80;99.90
30694;DHT22;17446;48.022;-1.740;2024-03-17T00:25:57;14.80;99.90
30694;DHT22;17446;48.022;-1.740;2024-03-17T00:28:23;14.80;99.90
30694;DHT22;17446;48.022;-1.740;2024-03-17T00:30:50;14.70;99.90
30694;DHT22;17446;48.022;-1.740;2024-03-17T00:33:15;14.70;99.90
30694;DHT22;17446;48.022;-1.740;2024-03-17T00:35:41;14.70;99.90
30694;DHT22;17446;48.022;-1.740;2024-03-17T00:38:07;14.70;99.90
30694;DHT22;17446;48.022;-1.740;2024-03-17T00:40:39;14.70;99.90
30694;DHT22;17446;48.022;-1.740;2024-03-17T00:43:07;14.70;99.90
30694;DHT22;17446;48.022;-1.740;2024-03-17T00:45:33;14.60;99.90
30694;DHT22;17446;48.022;-1.740;2024-03-17T00:47:59;14.60;99.90
30694;DHT22;17446;48.022;-1.740;2024-03-17T00:50:25;14.60;99.90
30694;DHT22;17446;48.022;-1.740;2024-03-17T00:52:50;14.60;99.90
30694;DHT22;17446;48.022;-1.740;2024-03-17T00:55:16;14.60;99.90
30694;DHT22;17446;48.022;-1.740;2024-03-17T00:57:42;14.60;99.90
30694;DHT22;17446;48.022;-1.740;2024-03-17T01:00:08;14.60;99.90
30694;DHT22;17446;48.022;-1.740;2024-03-17T01:02:40;14.60;99.90
30694;DHT22;17446;48.022;-1.740;2024-03-17T01:05:06;14.60;99.90
30694;DHT22;17446;48.022;-1.740;2024-03-17T01:07:33;14.60;99.90
30694;DHT22;17446;48.022;-1.740;2024-03-17T01:09:59;14.50;99.90
30694;DHT22;17446;48.022;-1.740;2024-03-17T01:12:25;14.60;99.90
30694;DHT22;17446;48.022;-1.740;2024-03-17T01:14:51;14.50;99.90
30694;DHT22;17446;48.022;-1.740;2024-03-17T01:17:17;14.50;99.90
30694;DHT22;17446;48.022;-1.740;2024-03-17T01:19:44;14.60;99.90
30694;DHT22;17446;48.022;-1.740;2024-03-17T01:22:10;14.60;99.90
30694;DHT22;17446;48.022;-1.740;2024-03-17T01:24:36;14.60;99.90
30694;DHT22;17446;48.022;-1.740;2024-03-17T01:27:02;14.60;99.90
30694;DHT22;17446;48.022;-1.740;2024-03-17T01:29:28;14.60;99.90
30694;DHT22;17446;48.022;-1.740;2024-03-17T01:31:54;14.60;99.90
30694;DHT22;17446;48.022;-1.740;2024-03-17T01:34:22;14.60;99.90
30694;DHT22;17446;48.022;-1.740;2024-03-17T01:36:47;14.50;99.90
30694;DHT22;17446;48.022;-1.740;2024-03-17T01:39:13;14.60;99.90
30694;DHT22;17446;48.022;-1.740;2024-03-17T01:41:41;14.50;99.90
30694;DHT22;17446;48.022;-1.740;2024-03-17T01:44:07;14.60;99.90
30694;DHT22;17446;48.022;-1.740;2024-03-17T01:46:32;14.50;99.90
30694;DHT22;17446;48.022;-1.740;2024-03-17T01:48:58;14.60;99.90
30694;DHT22;17446;48.022;-1.740;2024-03-17T01:51:24;14.50;99.90
30694;DHT22;17446;48.022;-1.740;2024-03-17T01:53:50;14.50;99.90
30694;DHT22;17446;48.022;-1.740;2024-03-17T01:56:17;14.50;99.90
30694;DHT22;17446;48.022;-1.740;2024-03-17T01:58:45;14.50;99.90
30694;DHT22;17446;48.022;-1.740;2024-03-17T02:01:11;14.50;99.90
30694;DHT22;17446;48.022;-1.740;2024-03-17T02:03:40;14.50;99.90
30694;DHT22;17446;48.022;-1.740;2024-03-17T02:06:08;14.50;99.90
30694;DHT22;17446;48.022;-1.740;2024-03-17T02:08:51;14.50;99.90
30694;DHT22;17446;48.022;-1.740;2024-03-17T02:11:26;14.50;99.90
30694;DHT22;17446;48.022;-1.740;2024-03-17T02:13:53;14.60;99.90
30694;DHT22;17446;48.022;-1.740;2024-03-17T02:16:19;14.60;99.90
30694;DHT22;17446;48.022;-1.740;2024-03-17T02:18:45;14.50;99.90
30694;DHT22;17446;48.022;-1.740;2024-03-17T02:21:12;14.50;99.90
30694;DHT22;17446;48.022;-1.740;2024-03-17T02:23:38;14.50;99.90
30694;DHT22;17446;48.022;-1.740;2024-03-17T02:26:04;14.50;99.90
30694;DHT22;17446;48.022;-1.740;2024-03-17T02:28:29;14.50;99.90
30694;DHT22;17446;48.022;-1.740;2024-03-17T02:31:03;14.50;99.90
30694;DHT22;17446;48.022;-1.740;2024-03-17T02:33:28;14.50;99.90
30694;DHT22;17446;48.022;-1.740;2024-03-17T02:35:54;14.40;99.90
30694;DHT22;17446;48.022;-1.740;2024-03-17T02:38:20;14.40;99.90
30694;DHT22;17446;48.022;-1.740;2024-03-17T02:41:05;14.50;99.90
30694;DHT22;17446;48.022;-1.740;2024-03-17T02:43:31;14.40;99.90
30694;DHT22;17446;48.022;-1.740;2024-03-17T02:45:56;14.40;99.90
30694;DHT22;17446;48.022;-1.740;2024-03-17T02:48:23;14.40;99.90
30694;DHT22;17446;48.022;-1.740;2024-03-17T02:50:48;14.40;99.90
30694;DHT22;17446;48.022;-1.740;2024-03-17T02:53:14;14.40;99.90
30694;DHT22;17446;48.022;-1.740;2024-03-17T02:55:40;14.40;99.90
30694;DHT22;17446;48.022;-1.740;2024-03-17T02:58:06;14.30;99.90
30694;DHT22;17446;48.022;-1.740;2024-03-17T03:00:35;14.30;99.90
30694;DHT22;17446;48.022;-1.740;2024-03-17T03:03:01;14.30;99.90
30694;DHT22;17446;48.022;-1.740;2024-03-17T03:05:26;14.30;99.90
30694;DHT22;17446;48.022;-1.740;2024-03-17T03:07:52;14.30;99.90
30694;DHT22;17446;48.022;-1.740;2024-03-17T03:10:17;14.30;99.90
30694;DHT22;17446;48.022;-1.740;2024-03-17T03:12:43;14.30;99.90
30694;DHT22;17446;48.022;-1.740;2024-03-17T03:15:09;14.30;99.90
30694;DHT22;17446;48.022;-1.740;2024-03-17T03:17:34;14.30;99.90
30694;DHT22;17446;48.022;-1.740;2024-03-17T03:20:00;14.30;99.90
30694;DHT22;17446;48.022;-1.740;2024-03-17T03:22:26;14.30;99.90
30694;DHT22;17446;48.022;-1.740;2024-03-17T03:24:52;14.30;99.90
30694;DHT22;17446;48.022;-1.740;2024-03-17T03:27:18;14.30;99.90
30694;DHT22;17446;48.022;-1.740;2024-03-17T03:29:44;14.30;99.90
30694;DHT22;17446;48.022;-1.740;2024-03-17T03:32:09;14.20;99.90
30694;DHT22;17446;48.022;-1.740;2024-03-17T03:34:35;14.30;99.90
30694;DHT22;17446;48.022;-1.740;2024-03-17T03:37:01;14.30;99.90
30694;DHT22;17446;48.022;-1.740;2024-03-17T03:39:26;14.30;99.90
30694;DHT22;17446;48.022;-1.740;2024-03-17T03:41:57;14.30;99.90
30694;DHT22;17446;48.022;-1.740;2024-03-17T03:44:22;14.30;99.90
30694;DHT22;17446;48.022;-1.740;2024-03-17T03:46:48;14.20;99.90
30694;DHT22;17446;48.022;-1.740;2024-03-17T03:49:13;14.20;99.90
30694;DHT22;17446;48.022;-1.740;2024-03-17T03:51:39;14.30;99.90
30694;DHT22;17446;48.022;-1.740;2024-03-17T03:54:05;14.20;99.90
30694;DHT22;17446;48.022;-1.740;2024-03-17T03:56:32;14.30;99.90
30694;DHT22;17446;48.022;-1.740;2024-03-17T03:58:58;14.20;99.90
30694;DHT22;17446;48.022;-1.740;2024-03-17T04:01:24;14.30;99.90
30694;DHT22;17446;48.022;-1.740;2024-03-17T04:03:50;14.30;99.90
30694;DHT22;17446;48.022;-1.740;2024-03-17T04:06:16;14.30;99.90
30694;DHT22;17446;48.022;-1.740;2024-03-17T04:08:42;14.30;99.90
30694;DHT22;17446;48.022;-1.740;2024-03-17T04:11:08;14.30;99.90
30694;DHT22;17446;48.022;-1.740;2024-03-17T04:13:34;14.30;99.90
30694;DHT22;17446;48.022;-1.740;2024-03-17T04:16:00;14.30;99.90
30694;DHT22;17446;48.022;-1.740;2024-03-17T04:18:28;14.20;99.90
30694;DHT22;17446;48.022;-1.740;2024-03-17T04:21:03;14.20;99.90
30694;DHT22;17446;48.022;-1.740;2024-03-17T04:23:29;14.20;99.90
30694;DHT22;17446;48.022;-1.740;2024-03-17T04:25:57;14.20;99.90
30694;DHT22;17446;48.022;-1.740;2024-03-17T04:28:23;14.20;99.90
30694;DHT22;17446;48.022;-1.740;2024-03-17T04:30:49;14.20;99.90
30694;DHT22;17446;48.022;-1.740;2024-03-17T04:33:15;14.20;99.90
30694;DHT22;17446;48.022;-1.740;2024-03-17T04:35:42;14.20;99.90
30694;DHT22;17446;48.022;-1.740;2024-03-17T04:38:08;14.20;99.90
30694;DHT22;17446;48.022;-1.740;2024-03-17T04:40:41;14.20;99.90
30694;DHT22;17446;48.022;-1.740;2024-03-17T04:43:07;14.20;99.90
30694;DHT22;17446;48.022;-1.740;2024-03-17T04:45:33;14.20;99.90
30694;DHT22;17446;48.022;-1.740;2024-03-17T04:47:59;14.20;99.90
30694;DHT22;17446;48.022;-1.740;2024-03-17T04:50:24;14.20;99.90
30694;DHT22;17446;48.022;-1.740;2024-03-17T04:52:51;14.20;99.90
30694;DHT22;17446;48.022;-1.740;2024-03-17T04:55:17;14.20;99.90
30694;DHT22;17446;48.022;-1.740;2024-03-17T04:57:45;14.20;99.90
30694;DHT22;17446;48.022;-1.740;2024-03-17T05:00:11;14.20;99.90
30694;DHT22;17446;48.022;-1.740;2024-03-17T05:02:38;14.20;99.90
30694;DHT22;17446;48.022;-1.740;2024-03-17T05:05:03;14.20;99.90
30694;DHT22;17446;48.022;-1.740;2024-03-17T05:07:31;14.20;99.90
30694;DHT22;17446;48.022;-1.740;2024-03-17T05:09:56;14.20;99.90
30694;DHT22;17446;48.022;-1.740;2024-03-17T05:12:22;14.20;99.90
30694;DHT22;17446;48.022;-1.740;2024-03-17T05:14:48;14.20;99.90
30694;DHT22;17446;48.022;-1.740;2024-03-17T05:17:13;14.20;99.90
30694;DHT22;17446;48.022;-1.740;2024-03-17T05:19:40;14.20;99.90
30694;DHT22;17446;48.022;-1.740;2024-03-17T05:22:05;14.20;99.90
30694;DHT22;17446;48.022;-1.740;2024-03-17T05:24:31;14.20;99.90
30694;DHT22;17446;48.022;-1.740;2024-03-17T05:26:56;14.20;99.90
30694;DHT22;17446;48.022;-1.740;2024-03-17T05:29:22;14.10;99.90
30694;DHT22;17446;48.022;-1.740;2024-03-17T05:31:49;14.20;99.90
30694;DHT22;17446;48.022;-1.740;2024-03-17T05:34:15;14.20;99.90
30694;DHT22;17446;48.022;-1.740;2024-03-17T05:36:40;14.20;99.90
30694;DHT22;17446;48.022;-1.740;2024-03-17T05:39:06;14.20;99.90
30694;DHT22;17446;48.022;-1.740;2024-03-17T05:41:32;14.20;99.90
30694;DHT22;17446;48.022;-1.740;2024-03-17T05:43:57;14.10;99.90
30694;DHT22;17446;48.022;-1.740;2024-03-17T05:46:24;14.20;99.90
30694;DHT22;17446;48.022;-1.740;2024-03-17T05:48:51;14.10;99.90
30694;DHT22;17446;48.022;-1.740;2024-03-17T05:51:16;14.20;99.90
30694;DHT22;17446;48.022;-1.740;2024-03-17T05:53:42;14.10;99.90
30694;DHT22;17446;48.022;-1.740;2024-03-17T05:56:11;14.10;99.90
30694;DHT22;17446;48.022;-1.740;2024-03-17T05:58:41;14.10;99.90
30694;DHT22;17446;48.022;-1.740;2024-03-17T06:01:07;14.10;99.90
30694;DHT22;17446;48.022;-1.740;2024-03-17T06:03:36;14.10;99.90
30694;DHT22;17446;48.022;-1.740;2024-03-17T06:06:03;14.10;99.90
30694;DHT22;17446;48.022;-1.740;2024-03-17T06:08:29;14.10;99.90
30694;DHT22;17446;48.022;-1.740;2024-03-17T06:10:54;14.10;99.90
30694;DHT22;17446;48.022;-1.740;2024-03-17T06:13:23;14.10;99.90
30694;DHT22;17446;48.022;-1.740;2024-03-17T06:15:50;14.10;99.90
30694;DHT22;17446;48.022;-1.740;2024-03-17T06:18:16;14.10;99.90
30694;DHT22;17446;48.022;-1.740;2024-03-17T06:20:44;14.10;99.90
30694;DHT22;17446;48.022;-1.740;2024-03-17T06:23:14;14.20;99.90
30694;DHT22;17446;48.022;-1.740;2024-03-17T06:25:42;14.20;99.90
30694;DHT22;17446;48.022;-1.740;2024-03-17T06:28:09;14.20;99.90
30694;DHT22;17446;48.022;-1.740;2024-03-17T06:30:36;14.20;99.90
30694;DHT22;17446;48.022;-1.740;2024-03-17T06:33:03;14.20;99.90
30694;DHT22;17446;48.022;-1.740;2024-03-17T06:35:29;14.20;99.90
30694;DHT22;17446;48.022;-1.740;2024-03-17T06:37:59;14.20;99.90
30694;DHT22;17446;48.022;-1.740;2024-03-17T06:40:25;14.20;99.90
30694;DHT22;17446;48.022;-1.740;2024-03-17T06:42:50;14.20;99.90
30694;DHT22;17446;48.022;-1.740;2024-03-17T06:45:17;14.20;99.90
30694;DHT22;17446;48.022;-1.740;2024-03-17T06:47:46;14.30;99.90
30694;DHT22;17446;48.022;-1.740;2024-03-17T06:50:12;14.20;99.90
30694;DHT22;17446;48.022;-1.740;2024-03-17T06:52:37;14.30;99.90
30694;DHT22;17446;48.022;-1.740;2024-03-17T06:55:04;14.30;99.90
30694;DHT22;17446;48.022;-1.740;2024-03-17T06:57:30;14.30;99.90
30694;DHT22;17446;48.022;-1.740;2024-03-17T06:59:55;14.30;99.90
30694;DHT22;17446;48.022;-1.740;2024-03-17T07:02:21;14.40;99.90
30694;DHT22;17446;48.022;-1.740;2024-03-17T07:04:47;14.40;99.90
30694;DHT22;17446;48.022;-1.740;2024-03-17T07:07:13;14.40;99.90
30694;DHT22;17446;48.022;-1.740;2024-03-17T07:09:40;14.40;99.90
30694;DHT22;17446;48.022;-1.740;2024-03-17T07:12:07;14.40;99.90
30694;DHT22;17446;48.022;-1.740;2024-03-17T07:14:32;14.50;99.90
30694;DHT22;17446;48.022;-1.740;2024-03-17T07:16:58;14.50;99.90
30694;DHT22;17446;48.022;-1.740;2024-03-17T07:19:24;14.60;99.90
30694;DHT22;17446;48.022;-1.740;2024-03-17T07:21:50;14.50;99.90
30694;DHT22;17446;48.022;-1.740;2024-03-17T07:24:16;14.50;99.90
30694;DHT22;17446;48.022;-1.740;2024-03-17T07:26:41;14.60;99.90
30694;DHT22;17446;48.022;-1.740;2024-03-17T07:29:07;14.60;99.90
30694;DHT22;17446;48.022;-1.740;2024-03-17T07:31:34;14.60;99.90
30694;DHT22;17446;48.022;-1.740;2024-03-17T07:33:59;14.70;99.90
30694;DHT22;17446;48.022;-1.740;2024-03-17T07:36:25;14.80;99.90
30694;DHT22;17446;48.022;-1.740;2024-03-17T07:38:51;14.80;99.90
30694;DHT22;17446;48.022;-1.740;2024-03-17T07:41:17;14.80;99.90
30694;DHT22;17446;48.022;-1.740;2024-03-17T07:43:45;14.80;99.90
30694;DHT22;17446;48.022;-1.740;2024-03-17T07:46:12;14.80;99.90
30694;DHT22;17446;48.022;-1.740;2024-03-17T07:48:39;14.80;99.90
30694;DHT22;17446;48.022;-1.740;2024-03-17T07:51:07;14.80;99.90
30694;DHT22;17446;48.022;-1.740;2024-03-17T07:53:33;14.90;99.90
30694;DHT22;17446;48.022;-1.740;2024-03-17T07:56:00;14.90;99.90
30694;DHT22;17446;48.022;-1.740;2024-03-17T07:58:26;14.90;99.90
30694;DHT22;17446;48.022;-1.740;2024-03-17T08:00:53;14.90;99.90
30694;DHT22;17446;48.022;-1.740;2024-03-17T08:03:21;14.90;99.90
30694;DHT22;17446;48.022;-1.740;2024-03-17T08:05:50;14.90;99.90
30694;DHT22;17446;48.022;-1.740;2024-03-17T08:08:17;15.00;99.90
30694;DHT22;17446;48.022;-1.740;2024-03-17T08:10:42;15.00;99.90
30694;DHT22;17446;48.022;-1.740;2024-03-17T08:13:08;15.00;99.90
30694;DHT22;17446;48.022;-1.740;2024-03-17T08:15:36;15.00;99.90
30694;DHT22;17446;48.022;-1.740;2024-03-17T08:18:02;15.00;99.90
30694;DHT22;17446;48.022;-1.740;2024-03-17T08:20:29;15.00;99.90
30694;DHT22;17446;48.022;-1.740;2024-03-17T08:22:55;15.10;99.90
30694;DHT22;17446;48.022;-1.740;2024-03-17T08:25:21;15.10;99.90
30694;DHT22;17446;48.022;-1.740;2024-03-17T08:27:47;15.10;99.90
30694;DHT22;17446;48.022;-1.740;2024-03-17T08:30:13;15.20;99.90
30694;DHT22;17446;48.022;-1.740;2024-03-17T08:32:39;15.20;99.90
30694;DHT22;17446;48.022;-1.740;2024-03-17T08:35:05;15.20;99.90
30694;DHT22;17446;48.022;-1.740;2024-03-17T08:37:31;15.20;99.90
30694;DHT22;17446;48.022;-1.740;2024-03-17T08:39:57;15.20;99.90
30694;DHT22;17446;48.022;-1.740;2024-03-17T08:42:22;15.30;99.90
30694;DHT22;17446;48.022;-1.740;2024-03-17T08:44:48;15.30;99.90
30694;DHT22;17446;48.022;-1.740;2024-03-17T08:47:14;15.30;99.90
30694;DHT22;17446;48.022;-1.740;2024-03-17T08:49:39;15.40;99.90
30694;DHT22;17446;48.022;-1.740;2024-03-17T08:52:05;15.40;99.90
30694;DHT22;17446;48.022;-1.740;2024-03-17T08:54:30;15.40;99.90
30694;DHT22;17446;48.022;-1.740;2024-03-17T08:56:56;15.50;99.90
30694;DHT22;17446;48.022;-1.740;2024-03-17T08:59:22;15.50;99.90
30694;DHT22;17446;48.022;-1.740;2024-03-17T09:01:47;15.60;99.90
30694;DHT22;17446;48.022;-1.740;2024-03-17T09:04:13;15.60;99.90
30694;DHT22;17446;48.022;-1.740;2024-03-17T09:06:38;15.70;99.90
30694;DHT22;17446;48.022;-1.740;2024-03-17T09:09:05;15.70;99.90
30694;DHT22;17446;48.022;-1.740;2024-03-17T09:11:31;15.70;99.90
30694;DHT22;17446;48.022;-1.740;2024-03-17T09:13:57;15.80;99.90
30694;DHT22;17446;48.022;-1.740;2024-03-17T09:16:24;15.90;99.90
30694;DHT22;17446;48.022;-1.740;2024-03-17T09:18:51;15.90;99.90
30694;DHT22;17446;48.022;-1.740;2024-03-17T09:21:16;15.90;99.90
30694;DHT22;17446;48.022;-1.740;2024-03-17T09:23:43;15.90;99.90
30694;DHT22;17446;48.022;-1.740;2024-03-17T09:26:09;16.00;99.90
30694;DHT22;17446;48.022;-1.740;2024-03-17T09:28:37;16.00;99.90
30694;DHT22;17446;48.022;-1.740;2024-03-17T09:31:03;16.10;99.90
30694;DHT22;17446;48.022;-1.740;2024-03-17T09:33:33;16.20;99.90
30694;DHT22;17446;48.022;-1.740;2024-03-17T09:36:16;16.30;99.90
30694;DHT22;17446;48.022;-1.740;2024-03-17T09:38:43;16.30;99.90
30694;DHT22;17446;48.022;-1.740;2024-03-17T09:41:21;16.40;99.90
30694;DHT22;17446;48.022;-1.740;2024-03-17T09:43:48;16.40;99.90
30694;DHT22;17446;48.022;-1.740;2024-03-17T09:46:15;16.40;99.90
30694;DHT22;17446;48.022;-1.740;2024-03-17T09:48:41;16.50;99.90
30694;DHT22;17446;48.022;-1.740;2024-03-17T09:51:19;16.60;99.90
30694;DHT22;17446;48.022;-1.740;2024-03-17T09:53:46;16.70;99.90
30694;DHT22;17446;48.022;-1.740;2024-03-17T09:56:13;16.80;99.90
30694;DHT22;17446;48.022;-1.740;2024-03-17T09:58:42;16.70;99.90
30694;DHT22;17446;48.022;-1.740;2024-03-17T10:01:08;16.80;99.90
30694;DHT22;17446;48.022;-1.740;2024-03-17T10:03:46;16.80;99.90
30694;DHT22;17446;48.022;-1.740;2024-03-17T10:06:17;16.80;99.90
30694;DHT22;17446;48.022;-1.740;2024-03-17T10:11:14;16.80;99.90
30694;DHT22;17446;48.022;-1.740;2024-03-17T10:13:42;16.90;99.90
30694;DHT22;17446;48.022;-1.740;2024-03-17T10:16:22;17.00;99.90
30694;DHT22;17446;48.022;-1.740;2024-03-17T10:18:48;17.00;99.90
30694;DHT22;17446;48.022;-1.740;2024-03-17T10:21:25;17.10;99.90
30694;DHT22;17446;48.022;-1.740;2024-03-17T10:24:05;17.10;99.90
30694;DHT22;17446;48.022;-1.740;2024-03-17T10:26:37;17.20;99.90
30694;DHT22;17446;48.022;-1.740;2024-03-17T10:29:05;17.20;99.90
30694;DHT22;17446;48.022;-1.740;2024-03-17T10:31:31;17.30;99.90
30694;DHT22;17446;48.022;-1.740;2024-03-17T10:34:03;17.30;99.90
30694;DHT22;17446;48.022;-1.740;2024-03-17T10:36:29;17.40;99.90
30694;DHT22;17446;48.022;-1.740;2024-03-17T10:38:54;17.60;99.90
30694;DHT22;17446;48.022;-1.740;2024-03-17T10:41:21;17.80;99.90
30694;DHT22;17446;48.022;-1.740;2024-03-17T10:43:48;18.10;99.90
30694;DHT22;17446;48.022;-1.740;2024-03-17T10:46:15;18.30;99.90
30694;DHT22;17446;48.022;-1.740;2024-03-17T10:48:41;18.50;99.90
30694;DHT22;17446;48.022;-1.740;2024-03-17T10:51:16;18.60;99.90
30694;DHT22;17446;48.022;-1.740;2024-03-17T10:53:45;18.70;99.90
30694;DHT22;17446;48.022;-1.740;2024-03-17T10:56:15;18.70;99.90
30694;DHT22;17446;48.022;-1.740;2024-03-17T10:58:48;18.60;99.90
30694;DHT22;17446;48.022;-1.740;2024-03-17T11:01:20;18.60;99.90
30694;DHT22;17446;48.022;-1.740;2024-03-17T11:03:46;18.60;99.90
30694;DHT22;17446;48.022;-1.740;2024-03-17T11:06:12;18.70;99.90
30694;DHT22;17446;48.022;-1.740;2024-03-17T11:08:38;18.80;99.90
30694;DHT22;17446;48.022;-1.740;2024-03-17T11:11:05;18.90;99.90
30694;DHT22;17446;48.022;-1.740;2024-03-17T11:13:31;19.00;99.90
30694;DHT22;17446;48.022;-1.740;2024-03-17T11:15:58;19.10;99.90
30694;DHT22;17446;48.022;-1.740;2024-03-17T11:21:06;19.20;99.90
30694;DHT22;17446;48.022;-1.740;2024-03-17T11:23:41;19.20;99.90
30694;DHT22;17446;48.022;-1.740;2024-03-17T11:26:08;19.30;99.90
30694;DHT22;17446;48.022;-1.740;2024-03-17T11:34:01;19.50;99.90
30694;DHT22;17446;48.022;-1.740;2024-03-17T11:38:58;19.40;99.90
30694;DHT22;17446;48.022;-1.740;2024-03-17T11:41:39;19.30;99.90
30694;DHT22;17446;48.022;-1.740;2024-03-17T11:49:19;18.90;99.90
30694;DHT22;17446;48.022;-1.740;2024-03-17T11:51:46;18.70;99.90
30694;DHT22;17446;48.022;-1.740;2024-03-17T11:54:17;18.60;99.90
30694;DHT22;17446;48.022;-1.740;2024-03-17T11:56:54;18.50;99.90
30694;DHT22;17446;48.022;-1.740;2024-03-17T11:59:21;18.40;99.90
30694;DHT22;17446;48.022;-1.740;2024-03-17T12:01:48;18.30;99.90
30694;DHT22;17446;48.022;-1.740;2024-03-17T12:04:15;18.20;99.90
30694;DHT22;17446;48.022;-1.740;2024-03-17T12:06:49;18.20;99.90
30694;DHT22;17446;48.022;-1.740;2024-03-17T12:11:57;18.20;99.90
30694;DHT22;17446;48.022;-1.740;2024-03-17T12:14:23;18.20;99.90
30694;DHT22;17446;48.022;-1.740;2024-03-17T12:16:55;18.20;99.90
30694;DHT22;17446;48.022;-1.740;2024-03-17T12:19:22;18.20;99.90
30694;DHT22;17446;48.022;-1.740;2024-03-17T12:21:50;18.30;99.90
30694;DHT22;17446;48.022;-1.740;2024-03-17T12:24:21;18.40;99.90
30694;DHT22;17446;48.022;-1.740;2024-03-17T12:26:48;18.50;99.90
30694;DHT22;17446;48.022;-1.740;2024-03-17T12:32:05;18.60;99.90
30694;DHT22;17446;48.022;-1.740;2024-03-17T12:34:32;18.70;99.90
30694;DHT22;17446;48.022;-1.740;2024-03-17T12:36:58;18.70;99.90
30694;DHT22;17446;48.022;-1.740;2024-03-17T12:39:26;18.70;99.90
30694;DHT22;17446;48.022;-1.740;2024-03-17T12:42:06;18.80;99.90
30694;DHT22;17446;48.022;-1.740;2024-03-17T12:47:20;19.10;99.90
30694;DHT22;17446;48.022;-1.740;2024-03-17T12:49:51;19.30;99.90
30694;DHT22;17446;48.022;-1.740;2024-03-17T12:52:31;19.30;99.90
30694;DHT22;17446;48.022;-1.740;2024-03-17T12:55:05;19.40;99.90
30694;DHT22;17446;48.022;-1.740;2024-03-17T12:57:51;19.40;99.90
30694;DHT22;17446;48.022;-1.740;2024-03-17T13:00:36;19.50;99.90
30694;DHT22;17446;48.022;-1.740;2024-03-17T13:03:05;19.50;99.90
30694;DHT22;17446;48.022;-1.740;2024-03-17T13:05:47;19.50;99.90
30694;DHT22;17446;48.022;-1.740;2024-03-17T13:08:12;19.50;99.90
30694;DHT22;17446;48.022;-1.740;2024-03-17T13:10:38;19.40;99.90
30694;DHT22;17446;48.022;-1.740;2024-03-17T13:13:05;19.40;99.90
30694;DHT22;17446;48.022;-1.740;2024-03-17T13:15:33;19.40;99.90
30694;DHT22;17446;48.022;-1.740;2024-03-17T13:18:04;19.40;99.90
30694;DHT22;17446;48.022;-1.740;2024-03-17T13:20:31;19.40;99.90
30694;DHT22;17446;48.022;-1.740;2024-03-17T13:22:57;19.30;99.90
30694;DHT22;17446;48.022;-1.740;2024-03-17T13:25:27;19.40;99.90
30694;DHT22;17446;48.022;-1.740;2024-03-17T13:27:55;19.40;99.90
30694;DHT22;17446;48.022;-1.740;2024-03-17T13:30:23;19.40;99.90
30694;DHT22;17446;48.022;-1.740;2024-03-17T13:32:50;19.40;99.90
30694;DHT22;17446;48.022;-1.740;2024-03-17T13:35:27;19.30;99.90
30694;DHT22;17446;48.022;-1.740;2024-03-17T13:37:53;19.20;99.90
30694;DHT22;17446;48.022;-1.740;2024-03-17T13:40:25;19.10;99.90
30694;DHT22;17446;48.022;-1.740;2024-03-17T13:42:53;18.90;99.90
30694;DHT22;17446;48.022;-1.740;2024-03-17T13:45:20;18.80;99.90
30694;DHT22;17446;48.022;-1.740;2024-03-17T13:48:00;18.70;99.90
30694;DHT22;17446;48.022;-1.740;2024-03-17T13:50:26;18.60;99.90
30694;DHT22;17446;48.022;-1.740;2024-03-17T13:52:52;18.60;99.90
30694;DHT22;17446;48.022;-1.740;2024-03-17T13:55:19;18.50;99.90
30694;DHT22;17446;48.022;-1.740;2024-03-17T13:57:50;18.60;99.90
30694;DHT22;17446;48.022;-1.740;2024-03-17T14:00:17;18.60;99.90
30694;DHT22;17446;48.022;-1.740;2024-03-17T14:02:44;18.70;99.90
30694;DHT22;17446;48.022;-1.740;2024-03-17T14:05:14;18.70;99.90
30694;DHT22;17446;48.022;-1.740;2024-03-17T14:07:41;18.80;99.90
30694;DHT22;17446;48.022;-1.740;2024-03-17T14:10:08;18.80;99.90
30694;DHT22;17446;48.022;-1.740;2024-03-17T14:12:35;18.80;99.90
30694;DHT22;17446;48.022;-1.740;2024-03-17T14:15:01;18.90;99.90
30694;DHT22;17446;48.022;-1.740;2024-03-17T14:17:28;18.80;99.90
30694;DHT22;17446;48.022;-1.740;2024-03-17T14:19:54;18.90;99.90
30694;DHT22;17446;48.022;-1.740;2024-03-17T14:22:19;19.00;99.90
30694;DHT22;17446;48.022;-1.740;2024-03-17T14:24:45;19.10;99.90
30694;DHT22;17446;48.022;-1.740;2024-03-17T14:27:12;19.20;99.90
30694;DHT22;17446;48.022;-1.740;2024-03-17T14:29:38;19.40;99.90
30694;DHT22;17446;48.022;-1.740;2024-03-17T14:32:04;19.60;99.90
30694;DHT22;17446;48.022;-1.740;2024-03-17T14:34:30;19.70;99.90
30694;DHT22;17446;48.022;-1.740;2024-03-17T14:37:02;19.70;99.90
30694;DHT22;17446;48.022;-1.740;2024-03-17T14:39:31;19.80;99.90
30694;DHT22;17446;48.022;-1.740;2024-03-17T14:41:56;19.90;99.90
30694;DHT22;17446;48.022;-1.740;2024-03-17T14:44:23;20.00;99.90
30694;DHT22;17446;48.022;-1.740;2024-03-17T14:46:49;20.10;99.90
30694;DHT22;17446;48.022;-1.740;2024-03-17T14:49:19;20.10;99.90
30694;DHT22;17446;48.022;-1.740;2024-03-17T14:51:45;20.10;99.90
30694;DHT22;17446;48.022;-1.740;2024-03-17T14:54:10;20.10;99.90
30694;DHT22;17446;48.022;-1.740;2024-03-17T14:56:37;20.00;99.90
30694;DHT22;17446;48.022;-1.740;2024-03-17T14:59:03;19.90;99.90
30694;DHT22;17446;48.022;-1.740;2024-03-17T15:01:28;19.80;99.90
30694;DHT22;17446;48.022;-1.740;2024-03-17T15:03:55;19.80;99.90
30694;DHT22;17446;48.022;-1.740;2024-03-17T15:06:21;19.70;99.90
30694;DHT22;17446;48.022;-1.740;2024-03-17T15:08:47;19.70;99.90
30694;DHT22;17446;48.022;-1.740;2024-03-17T15:11:13;19.60;99.90
30694;DHT22;17446;48.022;-1.740;2024-03-17T15:13:38;19.50;99.90
30694;DHT22;17446;48.022;-1.740;2024-03-17T15:16:05;19.40;99.90
30694;DHT22;17446;48.022;-1.740;2024-03-17T15:18:32;19.30;99.90
30694;DHT22;17446;48.022;-1.740;2024-03-17T15:21:00;19.20;99.90
30694;DHT22;17446;48.022;-1.740;2024-03-17T15:23:26;19.10;99.90
30694;DHT22;17446;48.022;-1.740;2024-03-17T15:26:04;19.00;99.90
30694;DHT22;17446;48.022;-1.740;2024-03-17T15:28:39;18.90;99.90
30694;DHT22;17446;48.022;-1.740;2024-03-17T15:31:09;18.90;99.90
30694;DHT22;17446;48.022;-1.740;2024-03-17T15:33:35;18.80;99.90
30694;DHT22;17446;48.022;-1.740;2024-03-17T15:36:03;18.70;99.90
30694;DHT22;17446;48.022;-1.740;2024-03-17T15:38:33;18.70;99.90
30694;DHT22;17446;48.022;-1.740;2024-03-17T15:41:09;18.70;99.90
30694;DHT22;17446;48.022;-1.740;2024-03-17T15:43:42;18.60;99.90